createdAt,value
2022-10-11T00:00:58.690Z,9.20
2022-10-11T00:03:35.108Z,8.80
2022-10-11T00:06:05.861Z,8.60
2022-10-11T00:08:34.421Z,8.00
2022-10-11T00:11:06.054Z,8.10
2022-10-11T00:13:35.004Z,9.50
2022-10-11T00:16:08.698Z,9.30
2022-10-11T00:18:36.797Z,8.50
2022-10-11T00:21:08.494Z,8.10
2022-10-11T00:23:37.283Z,7.40
2022-10-11T00:26:07.935Z,8.80
2022-10-11T00:28:36.965Z,8.60
2022-10-11T00:31:10.408Z,8.20
2022-10-11T00:33:38.473Z,8.60
2022-10-11T00:36:08.760Z,8.70
2022-10-11T00:38:37.071Z,11.90
2022-10-11T00:41:05.039Z,17.80
2022-10-11T00:43:34.243Z,16.20
2022-10-11T00:46:08.139Z,11.60
2022-10-11T00:49:04.474Z,9.60
2022-10-11T00:51:35.339Z,9.90
2022-10-11T00:54:03.927Z,10.60
2022-10-11T00:56:36.986Z,11.60
2022-10-11T00:59:12.628Z,12.50
2022-10-11T01:04:08.878Z,9.10
2022-10-11T01:06:36.880Z,9.90
2022-10-11T01:09:04.909Z,11.30
2022-10-11T01:11:42.787Z,11.70
2022-10-11T01:14:47.852Z,10.20
2022-10-11T01:17:21.343Z,10.00
2022-10-11T01:20:09.895Z,10.90
2022-10-11T01:23:16.365Z,10.30
2022-10-11T01:25:49.867Z,9.70
2022-10-11T01:28:25.430Z,11.00
2022-10-11T01:33:48.008Z,8.30
2022-10-11T01:36:34.399Z,9.20
2022-10-11T01:39:04.819Z,9.50
2022-10-11T01:41:39.372Z,9.40
2022-10-11T01:44:09.567Z,9.00
2022-10-11T01:46:37.608Z,9.40
2022-10-11T01:49:05.997Z,9.20
2022-10-11T01:51:38.151Z,9.20
2022-10-11T01:54:13.938Z,8.80
2022-10-11T01:57:07.364Z,9.20
2022-10-11T01:59:57.968Z,9.20
2022-10-11T02:03:03.817Z,9.10
2022-10-11T02:05:48.548Z,9.10
2022-10-11T02:08:50.548Z,10.20
2022-10-11T02:11:29.302Z,9.60
2022-10-11T02:14:25.570Z,9.30
2022-10-11T02:17:04.222Z,9.50
2022-10-11T02:19:38.640Z,10.40
2022-10-11T02:22:10.417Z,10.00
2022-10-11T02:24:42.015Z,9.50
2022-10-11T02:27:11.481Z,9.80
2022-10-11T02:29:43.826Z,9.90
2022-10-11T02:32:12.913Z,9.90
2022-10-11T02:34:47.476Z,9.30
2022-10-11T02:37:26.873Z,10.20
2022-10-11T02:40:01.497Z,10.20
2022-10-11T02:42:36.631Z,9.80
2022-10-11T02:45:34.753Z,10.00
2022-10-11T02:48:03.696Z,11.10
2022-10-11T02:50:31.773Z,9.70
2022-10-11T02:52:59.528Z,10.60
2022-10-11T02:55:27.396Z,10.50
2022-10-11T02:57:55.163Z,9.90
2022-10-11T03:00:23.026Z,11.70
2022-10-11T03:02:50.888Z,10.20
2022-10-11T03:05:18.807Z,10.80
2022-10-11T03:07:46.752Z,11.10
2022-10-11T03:10:14.760Z,10.80
2022-10-11T03:12:42.655Z,11.40
2022-10-11T03:15:10.932Z,10.90
2022-10-11T03:17:38.832Z,10.40
2022-10-11T03:20:07.607Z,11.00
2022-10-11T03:22:35.757Z,10.60
2022-10-11T03:25:04.873Z,11.60
2022-10-11T03:27:34.124Z,11.60
2022-10-11T03:30:02.434Z,11.70
2022-10-11T03:32:30.615Z,12.30
2022-10-11T03:34:58.465Z,11.20
2022-10-11T03:37:27.080Z,11.90
2022-10-11T03:39:54.819Z,11.00
2022-10-11T03:42:22.580Z,11.80
2022-10-11T03:44:52.118Z,11.90
2022-10-11T03:47:20.252Z,11.80
2022-10-11T03:49:48.046Z,11.90
2022-10-11T03:52:15.800Z,12.10
2022-10-11T03:54:43.848Z,12.10
2022-10-11T03:57:11.608Z,11.70
2022-10-11T03:59:39.373Z,11.70
2022-10-11T04:02:07.360Z,11.60
2022-10-11T04:04:35.411Z,11.70
2022-10-11T04:07:03.593Z,12.30
2022-10-11T04:09:31.403Z,12.50
2022-10-11T04:11:59.424Z,12.40
2022-10-11T04:14:27.508Z,12.20
2022-10-11T04:16:59.538Z,12.30
2022-10-11T04:19:28.275Z,11.90
2022-10-11T04:21:56.018Z,13.00
2022-10-11T04:24:23.766Z,12.00
2022-10-11T04:26:51.567Z,13.00
2022-10-11T04:29:19.309Z,13.10
2022-10-11T04:31:47.155Z,12.40
2022-10-11T04:34:15.024Z,13.20
2022-10-11T04:36:45.298Z,12.40
2022-10-11T04:39:17.102Z,12.60
2022-10-11T04:41:45.067Z,13.10
2022-10-11T04:44:12.793Z,13.20
2022-10-11T04:46:40.595Z,12.90
2022-10-11T04:49:08.972Z,13.70
2022-10-11T04:51:36.835Z,13.10
2022-10-11T04:54:04.701Z,13.80
2022-10-11T04:56:32.572Z,13.50
2022-10-11T04:59:00.336Z,14.80
2022-10-11T05:01:28.098Z,14.60
2022-10-11T05:03:55.960Z,13.60
2022-10-11T05:06:24.400Z,13.80
2022-10-11T05:08:52.424Z,14.00
2022-10-11T05:11:20.686Z,14.50
2022-10-11T05:13:48.494Z,14.10
2022-10-11T05:16:16.892Z,15.30
2022-10-11T05:18:45.083Z,14.80
2022-10-11T05:21:20.047Z,13.80
2022-10-11T05:23:49.904Z,13.40
2022-10-11T05:26:19.319Z,13.70
2022-10-11T05:28:48.110Z,13.50
2022-10-11T05:31:16.928Z,13.40
2022-10-11T05:33:45.095Z,14.10
2022-10-11T05:36:13.270Z,14.60
2022-10-11T05:38:41.204Z,13.50
2022-10-11T05:41:09.492Z,13.40
2022-10-11T05:43:37.781Z,14.70
2022-10-11T05:46:06.855Z,14.10
2022-10-11T05:48:35.072Z,14.30
2022-10-11T05:51:05.648Z,14.70
2022-10-11T05:53:33.515Z,15.30
2022-10-11T05:56:01.833Z,14.50
2022-10-11T05:58:29.879Z,13.40
2022-10-11T06:00:57.970Z,14.50
2022-10-11T06:03:25.829Z,14.20
2022-10-11T06:05:56.991Z,14.00
2022-10-11T06:08:25.215Z,14.00
2022-10-11T06:10:53.121Z,13.40
2022-10-11T06:13:20.876Z,14.00
2022-10-11T06:15:48.756Z,13.80
2022-10-11T06:18:16.528Z,14.50
2022-10-11T06:20:44.269Z,13.70
2022-10-11T06:23:12.346Z,13.50
2022-10-11T06:25:40.424Z,14.70
2022-10-11T06:28:08.243Z,13.90
2022-10-11T06:30:36.140Z,14.20
2022-10-11T06:33:05.060Z,13.30
2022-10-11T06:35:33.001Z,14.10
2022-10-11T06:38:00.781Z,13.90
2022-10-11T06:40:28.534Z,14.60
2022-10-11T06:42:56.495Z,13.70
2022-10-11T06:45:24.356Z,14.60
2022-10-11T06:47:52.124Z,14.70
2022-10-11T06:50:34.799Z,14.70
2022-10-11T06:53:08.485Z,13.80
2022-10-11T06:55:36.301Z,12.60
2022-10-11T06:58:04.167Z,15.20
2022-10-11T07:00:32.027Z,15.30
2022-10-11T07:03:00.567Z,14.90
2022-10-11T07:05:29.707Z,16.30
2022-10-11T07:07:57.434Z,16.30
2022-10-11T07:10:25.208Z,16.40
2022-10-11T07:12:53.242Z,16.60
2022-10-11T07:15:21.285Z,18.10
2022-10-11T07:17:49.013Z,18.40
2022-10-11T07:20:16.847Z,15.20
2022-10-11T07:22:44.565Z,17.90
2022-10-11T07:25:12.334Z,18.50
2022-10-11T07:27:40.091Z,16.50
2022-10-11T07:30:08.376Z,18.80
2022-10-11T07:32:36.097Z,18.00
2022-10-11T07:35:04.150Z,17.10
2022-10-11T07:37:33.250Z,17.40
2022-10-11T07:40:01.273Z,16.80
2022-10-11T07:42:29.024Z,14.60
2022-10-11T07:44:57.095Z,17.40
2022-10-11T07:47:24.863Z,16.50
2022-10-11T07:49:52.981Z,16.60
2022-10-11T07:52:20.739Z,16.00
2022-10-11T07:54:49.646Z,14.80
2022-10-11T07:57:17.445Z,14.60
2022-10-11T07:59:50.004Z,13.80
2022-10-11T08:02:18.192Z,14.50
2022-10-11T08:04:45.961Z,14.70
2022-10-11T08:07:14.033Z,14.60
2022-10-11T08:09:41.789Z,13.50
2022-10-11T08:12:10.154Z,13.30
2022-10-11T08:14:37.983Z,14.20
2022-10-11T08:17:05.773Z,13.80
2022-10-11T08:19:34.112Z,14.40
2022-10-11T08:22:02.055Z,13.50
2022-10-11T08:24:31.064Z,13.50
2022-10-11T08:27:01.362Z,13.30
2022-10-11T08:29:29.322Z,12.00
2022-10-11T08:31:57.198Z,12.50
2022-10-11T08:34:25.267Z,12.80
2022-10-11T08:36:53.130Z,11.50
2022-10-11T08:39:21.440Z,12.30
2022-10-11T08:42:02.373Z,11.40
2022-10-11T08:45:10.052Z,10.80
2022-10-11T08:47:42.322Z,11.20
2022-10-11T08:50:20.547Z,11.60
2022-10-11T08:52:53.899Z,11.80
2022-10-11T08:55:45.157Z,11.50
2022-10-11T08:58:16.626Z,9.10
2022-10-11T09:00:47.085Z,10.30
2022-10-11T09:03:38.157Z,10.60
2022-10-11T09:06:21.572Z,9.50
2022-10-11T09:09:20.722Z,9.80
2022-10-11T09:11:51.194Z,10.00
2022-10-11T09:14:40.419Z,8.50
2022-10-11T09:17:32.598Z,9.30
2022-10-11T09:20:30.364Z,8.90
2022-10-11T09:23:28.536Z,8.70
2022-10-11T09:26:05.536Z,7.70
2022-10-11T09:28:41.984Z,6.50
2022-10-11T09:31:11.696Z,5.90
2022-10-11T09:33:45.395Z,5.70
2022-10-11T09:36:28.557Z,5.50
2022-10-11T09:39:06.481Z,5.80
2022-10-11T09:41:59.269Z,5.20
2022-10-11T09:44:35.536Z,5.50
2022-10-11T09:47:04.934Z,5.80
2022-10-11T09:49:42.839Z,5.30
2022-10-11T09:52:20.121Z,5.10
2022-10-11T09:54:51.571Z,5.50
2022-10-11T09:57:29.895Z,4.80
2022-10-11T10:00:02.296Z,4.60
2022-10-11T10:02:39.241Z,4.80
2022-10-11T10:05:07.202Z,4.20
2022-10-11T10:07:36.298Z,4.10
2022-10-11T10:10:41.607Z,3.30
2022-10-11T10:13:29.254Z,3.20
2022-10-11T10:16:00.216Z,3.50
2022-10-11T10:18:36.402Z,3.30
2022-10-11T10:21:11.977Z,3.30
2022-10-11T10:23:45.375Z,3.10
2022-10-11T10:26:21.498Z,3.30
2022-10-11T10:29:11.460Z,3.00
2022-10-11T10:32:13.891Z,3.00
2022-10-11T10:35:08.422Z,3.10
2022-10-11T10:37:54.501Z,3.00
2022-10-11T10:40:43.910Z,2.70
2022-10-11T10:43:20.707Z,2.50
2022-10-11T10:46:10.671Z,2.40
2022-10-11T10:49:41.250Z,2.60
2022-10-11T10:55:17.059Z,2.10
2022-10-11T10:58:15.084Z,2.70
2022-10-11T11:01:03.389Z,2.70
2022-10-11T11:03:49.993Z,2.80
2022-10-11T11:06:39.478Z,2.50
2022-10-11T11:09:42.449Z,2.20
2022-10-11T11:12:27.169Z,2.50
2022-10-11T11:18:02.198Z,2.60
2022-10-11T11:20:44.079Z,2.60
2022-10-11T11:23:29.370Z,2.10
2022-10-11T11:26:27.356Z,2.50
2022-10-11T11:29:18.007Z,2.30
2022-10-11T11:31:59.456Z,2.20
2022-10-11T11:34:49.854Z,2.00
2022-10-11T11:37:32.875Z,1.90
2022-10-11T11:40:16.773Z,1.90
2022-10-11T11:43:00.798Z,2.40
2022-10-11T11:45:49.151Z,2.00
2022-10-11T11:48:26.898Z,2.30
2022-10-11T11:51:16.219Z,2.00
2022-10-11T11:54:29.724Z,2.00
2022-10-11T11:57:29.621Z,2.00
2022-10-11T12:00:06.510Z,1.70
2022-10-11T12:03:04.197Z,1.70
2022-10-11T12:05:36.904Z,2.10
2022-10-11T12:08:28.021Z,1.80
2022-10-11T12:11:20.499Z,2.40
2022-10-11T12:14:00.954Z,2.20
2022-10-11T12:16:32.687Z,1.90
2022-10-11T12:19:30.455Z,2.20
2022-10-11T12:22:40.716Z,1.80
2022-10-11T12:28:53.131Z,2.20
2022-10-11T12:31:34.799Z,1.80
2022-10-11T12:34:13.055Z,2.10
2022-10-11T12:36:48.087Z,1.90
2022-10-11T12:39:26.500Z,2.00
2022-10-11T12:42:19.497Z,1.80
2022-10-11T12:45:15.367Z,1.90
2022-10-11T12:48:08.006Z,1.80
2022-10-11T12:51:05.288Z,1.90
2022-10-11T12:53:33.791Z,2.00
2022-10-11T12:56:19.819Z,2.00
2022-10-11T12:58:50.633Z,2.00
2022-10-11T13:04:40.677Z,2.00
2022-10-11T13:07:25.964Z,1.80
2022-10-11T13:09:56.106Z,1.80
2022-10-11T13:12:48.832Z,1.60
2022-10-11T13:15:26.177Z,1.80
2022-10-11T13:18:07.279Z,1.90
2022-10-11T13:20:42.630Z,1.90
2022-10-11T13:23:30.487Z,1.90
2022-10-11T13:26:05.690Z,1.40
2022-10-11T13:29:01.741Z,1.50
2022-10-11T13:31:43.762Z,1.60
2022-10-11T13:34:23.055Z,1.60
2022-10-11T13:37:01.755Z,1.90
2022-10-11T13:39:42.084Z,2.10
2022-10-11T13:42:16.537Z,2.00
2022-10-11T13:44:47.156Z,1.60
2022-10-11T13:47:18.842Z,1.80
2022-10-11T13:49:53.357Z,2.00
2022-10-11T13:52:24.237Z,1.50
2022-10-11T13:55:11.614Z,1.70
2022-10-11T13:57:45.511Z,1.90
2022-10-11T14:00:16.649Z,1.80
2022-10-11T14:03:01.817Z,1.80
2022-10-11T14:05:29.989Z,1.70
2022-10-11T14:08:02.052Z,2.00
2022-10-11T14:10:30.328Z,1.60
2022-10-11T14:13:23.929Z,2.10
2022-10-11T14:16:29.134Z,1.80
2022-10-11T14:19:00.381Z,2.10
2022-10-11T14:21:28.168Z,1.90
2022-10-11T14:23:59.798Z,2.00
2022-10-11T14:26:35.694Z,2.10
2022-10-11T14:29:27.172Z,1.90
2022-10-11T14:32:08.428Z,1.60
2022-10-11T14:34:37.033Z,2.00
2022-10-11T14:37:05.310Z,2.00
2022-10-11T14:39:33.686Z,2.00
2022-10-11T14:42:01.859Z,2.00
2022-10-11T14:44:29.724Z,2.30
2022-10-11T14:46:57.490Z,2.60
2022-10-11T14:49:30.704Z,2.40
2022-10-11T14:51:59.284Z,2.10
2022-10-11T14:54:29.001Z,2.00
2022-10-11T14:56:59.501Z,2.00
2022-10-11T14:59:34.658Z,2.40
2022-10-11T15:02:04.305Z,2.40
2022-10-11T15:04:32.214Z,2.00
2022-10-11T15:07:00.105Z,2.20
2022-10-11T15:09:28.349Z,2.30
2022-10-11T15:11:57.102Z,1.80
2022-10-11T15:14:25.793Z,1.80
2022-10-11T15:16:55.019Z,2.10
2022-10-11T15:19:25.075Z,2.50
2022-10-11T15:21:53.007Z,2.50
2022-10-11T15:24:20.934Z,2.90
2022-10-11T15:26:49.251Z,2.70
2022-10-11T15:29:18.058Z,2.90
2022-10-11T15:31:46.714Z,3.00
2022-10-11T15:34:14.697Z,3.10
2022-10-11T15:36:42.654Z,3.20
2022-10-11T15:39:43.084Z,2.80
2022-10-11T15:42:10.873Z,3.10
2022-10-11T15:44:38.658Z,2.80
2022-10-11T15:47:06.474Z,2.90
2022-10-11T15:49:34.209Z,3.10
2022-10-11T15:52:02.101Z,3.00
2022-10-11T15:54:30.480Z,2.70
2022-10-11T15:56:58.960Z,3.30
2022-10-11T15:59:27.030Z,2.90
2022-10-11T16:01:54.944Z,3.10
2022-10-11T16:04:22.773Z,2.90
2022-10-11T16:06:50.487Z,2.70
2022-10-11T16:09:18.217Z,3.40
2022-10-11T16:11:46.028Z,3.70
2022-10-11T16:14:13.771Z,4.10
2022-10-11T16:16:41.523Z,3.60
2022-10-11T16:19:09.646Z,4.30
2022-10-11T16:21:37.415Z,5.00
2022-10-11T16:24:05.375Z,4.20
2022-10-11T16:26:33.360Z,4.40
2022-10-11T16:29:01.236Z,6.10
2022-10-11T16:31:29.204Z,6.00
2022-10-11T16:33:57.864Z,8.90
2022-10-11T16:36:40.846Z,8.60
2022-10-11T16:39:13.760Z,8.90
2022-10-11T16:41:42.848Z,8.30
2022-10-11T16:44:15.684Z,8.40
2022-10-11T16:46:48.150Z,8.60
2022-10-11T16:49:18.656Z,8.30
2022-10-11T16:51:46.400Z,8.50
2022-10-11T16:54:19.300Z,9.00
2022-10-11T16:56:49.691Z,9.00
2022-10-11T16:59:17.901Z,9.40
2022-10-11T17:01:46.479Z,9.10
2022-10-11T17:04:14.964Z,10.00
2022-10-11T17:06:44.249Z,9.90
2022-10-11T17:09:12.320Z,9.30
2022-10-11T17:11:40.900Z,9.80
2022-10-11T17:14:10.612Z,10.10
2022-10-11T17:16:38.475Z,8.40
2022-10-11T17:19:09.908Z,9.00
2022-10-11T17:21:38.653Z,10.60
2022-10-11T17:24:07.461Z,10.90
2022-10-11T17:26:35.276Z,10.50
2022-10-11T17:29:03.069Z,11.90
2022-10-11T17:31:31.098Z,12.20
2022-10-11T17:34:00.725Z,11.30
2022-10-11T17:36:32.062Z,13.00
2022-10-11T17:39:04.736Z,13.80
2022-10-11T17:41:32.586Z,14.60
2022-10-11T17:44:01.872Z,14.30
2022-10-11T17:46:32.873Z,13.70
2022-10-11T17:49:04.928Z,13.20
2022-10-11T17:51:35.084Z,13.10
2022-10-11T17:54:03.989Z,14.50
2022-10-11T17:56:37.438Z,13.90
2022-10-11T17:59:06.724Z,13.90
2022-10-11T18:01:35.065Z,13.80
2022-10-11T18:04:05.039Z,11.80
2022-10-11T18:06:38.884Z,12.10
2022-10-11T18:09:06.978Z,12.20
2022-10-11T18:11:35.481Z,13.10
2022-10-11T18:14:04.595Z,12.90
2022-10-11T18:16:33.130Z,13.40
2022-10-11T18:19:03.969Z,16.10
2022-10-11T18:21:34.500Z,16.60
2022-10-11T18:24:05.091Z,15.40
2022-10-11T18:26:32.882Z,17.60
2022-10-11T18:29:00.917Z,17.80
2022-10-11T18:31:30.531Z,17.60
2022-10-11T18:33:58.353Z,19.00
2022-10-11T18:36:29.336Z,17.70
2022-10-11T18:38:59.989Z,17.10
2022-10-11T18:41:31.717Z,17.00
2022-10-11T18:44:05.078Z,16.70
2022-10-11T18:46:33.619Z,16.40
2022-10-11T18:49:02.320Z,16.70
2022-10-11T18:51:33.937Z,16.80
2022-10-11T18:54:02.469Z,16.00
2022-10-11T18:56:32.495Z,16.20
2022-10-11T18:59:00.318Z,17.00
2022-10-11T19:01:31.172Z,15.90
2022-10-11T19:04:00.396Z,16.80
2022-10-11T19:06:31.772Z,18.90
2022-10-11T19:09:11.783Z,17.40
2022-10-11T19:11:40.563Z,15.70
2022-10-11T19:14:14.890Z,18.30
2022-10-11T19:16:51.690Z,16.60
2022-10-11T19:19:22.583Z,17.50
2022-10-11T19:21:50.667Z,18.50
2022-10-11T19:24:21.127Z,18.20
2022-10-11T19:26:50.515Z,19.00
2022-10-11T19:29:20.089Z,18.40
2022-10-11T19:31:56.405Z,17.80
2022-10-11T19:34:30.038Z,18.90
2022-10-11T19:37:00.839Z,19.90
2022-10-11T19:39:29.782Z,19.20
2022-10-11T19:41:57.645Z,21.10
2022-10-11T19:44:25.427Z,20.60
2022-10-11T19:46:53.408Z,19.50
2022-10-11T19:49:25.061Z,18.90
2022-10-11T19:51:53.884Z,20.90
2022-10-11T19:54:22.410Z,18.80
2022-10-11T19:56:50.551Z,18.70
2022-10-11T19:59:18.970Z,21.00
2022-10-11T20:01:52.354Z,20.00
2022-10-11T20:07:09.598Z,23.50
2022-10-11T20:09:37.367Z,21.20
2022-10-11T20:12:05.807Z,20.60
2022-10-11T20:14:33.658Z,22.80
2022-10-11T20:17:01.382Z,20.30
2022-10-11T20:19:31.211Z,27.60
2022-10-11T20:22:01.182Z,23.90
2022-10-11T20:24:33.488Z,20.20
2022-10-11T20:27:06.598Z,21.40
2022-10-11T20:29:34.879Z,21.00
2022-10-11T20:32:02.934Z,22.60
2022-10-11T20:34:31.176Z,20.60
2022-10-11T20:36:59.319Z,20.60
2022-10-11T20:39:27.279Z,20.40
2022-10-11T20:41:55.142Z,22.30
2022-10-11T20:44:23.216Z,22.00
2022-10-11T20:46:51.397Z,21.50
2022-10-11T20:49:20.162Z,20.90
2022-10-11T20:51:48.511Z,24.50
2022-10-11T20:54:16.931Z,23.40
2022-10-11T20:56:44.793Z,22.00
2022-10-11T20:59:12.692Z,21.50
2022-10-11T21:01:41.838Z,22.50
2022-10-11T21:04:17.917Z,22.80
2022-10-11T21:06:47.345Z,20.90
2022-10-11T21:09:17.037Z,22.90
2022-10-11T21:11:45.015Z,22.10
2022-10-11T21:14:12.915Z,21.30
2022-10-11T21:16:40.700Z,21.60
2022-10-11T21:19:13.396Z,21.40
2022-10-11T21:21:41.577Z,23.40
2022-10-11T21:24:09.850Z,22.50
2022-10-11T21:26:37.656Z,23.20
2022-10-11T21:29:05.618Z,22.80
2022-10-11T21:31:34.570Z,21.80
2022-10-11T21:34:05.406Z,21.30
2022-10-11T21:36:33.753Z,22.30
2022-10-11T21:39:01.658Z,23.50
2022-10-11T21:41:34.134Z,23.30
2022-10-11T21:44:01.995Z,21.80
2022-10-11T21:47:01.163Z,23.00
2022-10-11T21:49:20.136Z,22.80
2022-10-11T21:51:48.630Z,22.30
2022-10-11T21:54:17.029Z,22.00
2022-10-11T21:56:44.877Z,21.60
2022-10-11T21:59:12.921Z,22.10
2022-10-11T22:01:42.065Z,22.40
2022-10-11T22:04:11.168Z,21.90
2022-10-11T22:06:39.733Z,22.70
2022-10-11T22:09:08.689Z,23.20
2022-10-11T22:11:37.642Z,25.40
2022-10-11T22:14:06.000Z,19.50
2022-10-11T22:16:35.230Z,20.50
2022-10-11T22:19:03.651Z,21.50
2022-10-11T22:21:32.131Z,21.40
2022-10-11T22:24:00.257Z,21.10
2022-10-11T22:26:30.817Z,22.10
2022-10-11T22:29:00.246Z,23.40
2022-10-11T22:31:29.336Z,23.10
2022-10-11T22:33:59.247Z,21.80
2022-10-11T22:36:30.750Z,20.90
2022-10-11T22:38:59.067Z,23.40
2022-10-11T22:41:27.043Z,22.20
2022-10-11T22:43:54.797Z,20.40
2022-10-11T22:46:22.630Z,22.10
2022-10-11T22:48:50.386Z,21.00
2022-10-11T22:51:18.176Z,19.50
2022-10-11T22:53:46.057Z,19.10
2022-10-11T22:56:14.253Z,19.30
2022-10-11T22:58:42.125Z,19.90
2022-10-11T23:01:12.532Z,19.80
2022-10-11T23:03:40.474Z,18.90
2022-10-11T23:06:09.044Z,19.50
2022-10-11T23:08:36.831Z,20.30
2022-10-11T23:11:06.658Z,19.80
2022-10-11T23:13:35.234Z,19.10
2022-10-11T23:16:11.802Z,18.20
2022-10-11T23:18:39.765Z,20.20
2022-10-11T23:21:08.555Z,19.10
2022-10-11T23:23:36.620Z,17.80
2022-10-11T23:26:07.661Z,18.50
2022-10-11T23:28:36.226Z,18.00
2022-10-11T23:31:12.729Z,17.60
2022-10-11T23:33:41.073Z,19.00
2022-10-11T23:36:17.745Z,17.50
2022-10-11T23:38:50.651Z,18.90
2022-10-11T23:41:18.610Z,17.00
2022-10-11T23:43:46.580Z,17.40
2022-10-11T23:46:14.452Z,18.60
2022-10-11T23:48:42.412Z,18.40
2022-10-11T23:51:10.689Z,16.40
2022-10-11T23:53:38.553Z,17.10
2022-10-11T23:56:07.433Z,17.80
2022-10-11T23:58:35.420Z,17.90
